Página principal
METAR-TAF:

METAR-TAF

Aeroportos :

Aeroporto de Cabinda

Cabinda, Angola

latitude: 5-35-50S, longitude: 12-11-17E, altura: 20 m

Observação actual do tempo

O boletim foi feito há 51 minutos, às 11:00 UTC
Vento 9 kt de su-sudoeste, variando entre sul e oes-sudoeste
Temperatura 27°C
Humidade 66%
Pressão 1016 hPa
Visibilidade 10 km ou mais
Poucas nuvensa uma altura de 1800 ft

METAR: FNCA 181100Z 20009KT 170V250 9999 FEW018 27/20 Q1016 NOSIG

Hora: 12:51 (11:51 UTC)

Previsão

O boletim foi feito há 51 minutos, às 11:00 UTC
Previsão válida de 18 às 12 UTC a 18 às 24 UTC
Vento 7 kt de su-sudoeste
Visibilidade 10 km ou mais
Nuvens dispersasa uma altura de 2200 ft

TAF: FNCA 181100Z 1812/1824 20007KT 9999 SCT022

Observações e previsões do tempo de mais de 4000 aeroportos (mensagens METAR e TAF).

As estações disponíveis são os pontos amarelos e vermelhos sobre o mapa.

Mova o rato sobre o mapa para ver o nome da estação.

Depois clique no ponto para visualizar as observações e previsões meteorológicas.

Para alterar o mapa : clique nos botões verdes com uma cruz preta para aumentar o zoom; no botão verde com uma pitada de zoom; ou nas setas verdes para mapas adjacentes.


METAR-TAF: